sensor_id;sensor_type;location;lat;lon;timestamp;P1;durP1;ratioP1;P2;durP2;ratioP2
76566;SDS011;65428;53.194;6.132;2023-05-29T00:02:22;14.82;;;2.03;;
76566;SDS011;65428;53.194;6.132;2023-05-29T00:04:48;13.93;;;1.60;;
76566;SDS011;65428;53.194;6.132;2023-05-29T00:07:13;14.23;;;2.10;;
76566;SDS011;65428;53.194;6.132;2023-05-29T00:09:41;14.68;;;2.05;;
76566;SDS011;65428;53.194;6.132;2023-05-29T00:12:07;15.33;;;1.70;;
76566;SDS011;65428;53.194;6.132;2023-05-29T00:14:32;13.52;;;1.90;;
76566;SDS011;65428;53.194;6.132;2023-05-29T00:16:58;13.93;;;1.80;;
76566;SDS011;65428;53.194;6.132;2023-05-29T00:19:24;15.57;;;2.23;;
76566;SDS011;65428;53.194;6.132;2023-05-29T00:21:50;12.20;;;1.73;;
76566;SDS011;65428;53.194;6.132;2023-05-29T00:24:15;12.43;;;1.60;;
76566;SDS011;65428;53.194;6.132;2023-05-29T00:26:42;13.55;;;1.92;;
76566;SDS011;65428;53.194;6.132;2023-05-29T00:29:08;14.65;;;1.70;;
76566;SDS011;65428;53.194;6.132;2023-05-29T00:31:33;14.32;;;1.67;;
76566;SDS011;65428;53.194;6.132;2023-05-29T00:34:00;12.90;;;1.90;;
76566;SDS011;65428;53.194;6.132;2023-05-29T00:36:26;17.02;;;2.20;;
76566;SDS011;65428;53.194;6.132;2023-05-29T00:38:53;16.00;;;2.23;;
76566;SDS011;65428;53.194;6.132;2023-05-29T00:41:19;12.60;;;2.00;;
76566;SDS011;65428;53.194;6.132;2023-05-29T00:43:45;13.93;;;1.80;;
76566;SDS011;65428;53.194;6.132;2023-05-29T00:46:11;14.30;;;2.13;;
76566;SDS011;65428;53.194;6.132;2023-05-29T00:48:38;15.97;;;1.93;;
76566;SDS011;65428;53.194;6.132;2023-05-29T00:51:06;12.57;;;2.10;;
76566;SDS011;65428;53.194;6.132;2023-05-29T00:53:33;13.00;;;2.08;;
76566;SDS011;65428;53.194;6.132;2023-05-29T00:55:59;15.47;;;2.20;;
76566;SDS011;65428;53.194;6.132;2023-05-29T00:58:26;20.10;;;2.90;;
76566;SDS011;65428;53.194;6.132;2023-05-29T01:00:52;13.40;;;2.03;;
76566;SDS011;65428;53.194;6.132;2023-05-29T01:03:18;14.93;;;2.08;;
76566;SDS011;65428;53.194;6.132;2023-05-29T01:05:48;17.30;;;2.63;;
76566;SDS011;65428;53.194;6.132;2023-05-29T01:08:13;18.93;;;2.83;;
76566;SDS011;65428;53.194;6.132;2023-05-29T01:10:39;13.55;;;2.28;;
76566;SDS011;65428;53.194;6.132;2023-05-29T01:13:22;16.20;;;2.22;;
76566;SDS011;65428;53.194;6.132;2023-05-29T01:15:52;14.75;;;2.20;;
76566;SDS011;65428;53.194;6.132;2023-05-29T01:23:37;13.77;;;2.23;;
76566;SDS011;65428;53.194;6.132;2023-05-29T01:28:51;14.73;;;2.67;;
76566;SDS011;65428;53.194;6.132;2023-05-29T01:31:21;18.73;;;2.43;;
76566;SDS011;65428;53.194;6.132;2023-05-29T01:33:53;15.00;;;2.47;;
76566;SDS011;65428;53.194;6.132;2023-05-29T01:36:20;15.57;;;2.25;;
76566;SDS011;65428;53.194;6.132;2023-05-29T01:38:47;13.02;;;2.33;;
76566;SDS011;65428;53.194;6.132;2023-05-29T01:41:14;13.60;;;2.45;;
76566;SDS011;65428;53.194;6.132;2023-05-29T01:43:41;15.75;;;2.50;;
76566;SDS011;65428;53.194;6.132;2023-05-29T01:46:08;14.38;;;2.60;;
76566;SDS011;65428;53.194;6.132;2023-05-29T01:48:35;17.70;;;2.40;;
76566;SDS011;65428;53.194;6.132;2023-05-29T01:51:01;16.88;;;2.55;;
76566;SDS011;65428;53.194;6.132;2023-05-29T01:53:26;13.17;;;2.30;;
76566;SDS011;65428;53.194;6.132;2023-05-29T01:55:55;14.98;;;2.35;;
76566;SDS011;65428;53.194;6.132;2023-05-29T01:58:21;14.48;;;2.80;;
76566;SDS011;65428;53.194;6.132;2023-05-29T02:00:48;16.75;;;2.42;;
76566;SDS011;65428;53.194;6.132;2023-05-29T02:03:14;16.65;;;2.65;;
76566;SDS011;65428;53.194;6.132;2023-05-29T02:05:40;13.07;;;2.30;;
76566;SDS011;65428;53.194;6.132;2023-05-29T02:08:05;16.63;;;2.42;;
76566;SDS011;65428;53.194;6.132;2023-05-29T02:10:31;16.17;;;2.80;;
76566;SDS011;65428;53.194;6.132;2023-05-29T02:12:57;15.60;;;2.60;;
76566;SDS011;65428;53.194;6.132;2023-05-29T02:15:22;15.55;;;2.60;;
76566;SDS011;65428;53.194;6.132;2023-05-29T02:17:48;16.25;;;2.83;;
76566;SDS011;65428;53.194;6.132;2023-05-29T02:20:14;15.90;;;2.88;;
76566;SDS011;65428;53.194;6.132;2023-05-29T02:22:40;15.90;;;2.75;;
76566;SDS011;65428;53.194;6.132;2023-05-29T02:25:07;17.02;;;2.55;;
76566;SDS011;65428;53.194;6.132;2023-05-29T02:27:32;17.92;;;3.40;;
76566;SDS011;65428;53.194;6.132;2023-05-29T02:29:58;19.10;;;3.17;;
76566;SDS011;65428;53.194;6.132;2023-05-29T02:32:24;18.50;;;3.60;;
76566;SDS011;65428;53.194;6.132;2023-05-29T02:34:52;18.47;;;2.87;;
76566;SDS011;65428;53.194;6.132;2023-05-29T02:37:18;18.02;;;3.03;;
76566;SDS011;65428;53.194;6.132;2023-05-29T02:39:44;19.93;;;3.50;;
76566;SDS011;65428;53.194;6.132;2023-05-29T02:42:09;14.60;;;2.58;;
76566;SDS011;65428;53.194;6.132;2023-05-29T02:44:35;16.40;;;2.78;;
76566;SDS011;65428;53.194;6.132;2023-05-29T02:47:01;16.03;;;2.50;;
76566;SDS011;65428;53.194;6.132;2023-05-29T02:49:26;17.77;;;3.10;;
76566;SDS011;65428;53.194;6.132;2023-05-29T02:51:52;16.97;;;2.97;;
76566;SDS011;65428;53.194;6.132;2023-05-29T02:54:22;16.48;;;2.88;;
76566;SDS011;65428;53.194;6.132;2023-05-29T02:56:49;15.13;;;2.85;;
76566;SDS011;65428;53.194;6.132;2023-05-29T02:59:15;18.30;;;3.03;;
76566;SDS011;65428;53.194;6.132;2023-05-29T03:01:41;17.20;;;2.87;;
76566;SDS011;65428;53.194;6.132;2023-05-29T03:04:07;17.33;;;3.05;;
76566;SDS011;65428;53.194;6.132;2023-05-29T03:06:34;14.45;;;2.28;;
76566;SDS011;65428;53.194;6.132;2023-05-29T03:09:01;14.82;;;2.83;;
76566;SDS011;65428;53.194;6.132;2023-05-29T03:11:27;14.32;;;2.80;;
76566;SDS011;65428;53.194;6.132;2023-05-29T03:13:54;13.48;;;3.03;;
76566;SDS011;65428;53.194;6.132;2023-05-29T03:16:20;16.23;;;2.15;;
76566;SDS011;65428;53.194;6.132;2023-05-29T03:18:46;14.47;;;2.27;;
76566;SDS011;65428;53.194;6.132;2023-05-29T03:21:12;14.23;;;2.43;;
76566;SDS011;65428;53.194;6.132;2023-05-29T03:23:37;13.18;;;2.47;;
76566;SDS011;65428;53.194;6.132;2023-05-29T03:26:03;18.30;;;2.28;;
76566;SDS011;65428;53.194;6.132;2023-05-29T03:28:30;14.50;;;2.10;;
76566;SDS011;65428;53.194;6.132;2023-05-29T03:30:56;14.88;;;2.38;;
76566;SDS011;65428;53.194;6.132;2023-05-29T03:33:22;11.73;;;1.60;;
76566;SDS011;65428;53.194;6.132;2023-05-29T03:35:47;12.17;;;1.83;;
76566;SDS011;65428;53.194;6.132;2023-05-29T03:38:13;14.90;;;2.20;;
76566;SDS011;65428;53.194;6.132;2023-05-29T03:40:38;14.93;;;2.07;;
76566;SDS011;65428;53.194;6.132;2023-05-29T03:43:04;13.40;;;2.20;;
76566;SDS011;65428;53.194;6.132;2023-05-29T03:45:30;12.30;;;2.40;;
76566;SDS011;65428;53.194;6.132;2023-05-29T03:47:55;11.70;;;2.00;;
76566;SDS011;65428;53.194;6.132;2023-05-29T03:50:21;11.30;;;1.93;;
76566;SDS011;65428;53.194;6.132;2023-05-29T03:52:46;12.98;;;1.70;;
76566;SDS011;65428;53.194;6.132;2023-05-29T03:55:12;14.03;;;1.67;;
76566;SDS011;65428;53.194;6.132;2023-05-29T03:57:39;13.15;;;1.83;;
76566;SDS011;65428;53.194;6.132;2023-05-29T04:00:07;9.45;;;1.90;;
76566;SDS011;65428;53.194;6.132;2023-05-29T04:02:35;12.82;;;1.75;;
76566;SDS011;65428;53.194;6.132;2023-05-29T04:05:01;14.77;;;2.00;;
76566;SDS011;65428;53.194;6.132;2023-05-29T04:07:27;13.90;;;1.97;;
76566;SDS011;65428;53.194;6.132;2023-05-29T04:09:53;13.32;;;2.55;;
76566;SDS011;65428;53.194;6.132;2023-05-29T04:12:18;12.23;;;1.85;;
76566;SDS011;65428;53.194;6.132;2023-05-29T04:14:47;12.47;;;1.77;;
76566;SDS011;65428;53.194;6.132;2023-05-29T04:17:12;12.20;;;2.05;;
76566;SDS011;65428;53.194;6.132;2023-05-29T04:19:38;11.40;;;1.73;;
76566;SDS011;65428;53.194;6.132;2023-05-29T04:22:04;11.63;;;2.10;;
76566;SDS011;65428;53.194;6.132;2023-05-29T04:24:29;14.27;;;1.85;;
76566;SDS011;65428;53.194;6.132;2023-05-29T04:26:56;12.82;;;2.28;;
76566;SDS011;65428;53.194;6.132;2023-05-29T04:29:25;11.68;;;1.92;;
76566;SDS011;65428;53.194;6.132;2023-05-29T04:31:51;12.97;;;1.80;;
76566;SDS011;65428;53.194;6.132;2023-05-29T04:34:17;13.23;;;2.13;;
76566;SDS011;65428;53.194;6.132;2023-05-29T04:36:43;10.73;;;1.73;;
76566;SDS011;65428;53.194;6.132;2023-05-29T04:39:10;15.38;;;2.20;;
76566;SDS011;65428;53.194;6.132;2023-05-29T04:41:35;12.27;;;1.85;;
76566;SDS011;65428;53.194;6.132;2023-05-29T04:44:02;12.60;;;1.85;;
76566;SDS011;65428;53.194;6.132;2023-05-29T04:46:29;13.50;;;2.45;;
76566;SDS011;65428;53.194;6.132;2023-05-29T04:48:55;12.18;;;1.88;;
76566;SDS011;65428;53.194;6.132;2023-05-29T04:51:21;14.82;;;1.98;;
76566;SDS011;65428;53.194;6.132;2023-05-29T04:53:47;10.65;;;2.03;;
76566;SDS011;65428;53.194;6.132;2023-05-29T04:56:14;12.10;;;1.55;;
76566;SDS011;65428;53.194;6.132;2023-05-29T04:58:41;11.38;;;1.88;;
76566;SDS011;65428;53.194;6.132;2023-05-29T05:01:07;14.40;;;1.73;;
76566;SDS011;65428;53.194;6.132;2023-05-29T05:03:34;14.30;;;1.75;;
76566;SDS011;65428;53.194;6.132;2023-05-29T05:06:01;8.70;;;1.17;;
76566;SDS011;65428;53.194;6.132;2023-05-29T05:08:32;12.35;;;1.63;;
76566;SDS011;65428;53.194;6.132;2023-05-29T05:10:59;11.57;;;1.50;;
76566;SDS011;65428;53.194;6.132;2023-05-29T05:13:25;13.45;;;1.73;;
76566;SDS011;65428;53.194;6.132;2023-05-29T05:15:52;14.50;;;1.87;;
76566;SDS011;65428;53.194;6.132;2023-05-29T05:18:17;13.55;;;1.70;;
76566;SDS011;65428;53.194;6.132;2023-05-29T05:20:43;10.63;;;1.70;;
76566;SDS011;65428;53.194;6.132;2023-05-29T05:23:09;14.27;;;2.00;;
76566;SDS011;65428;53.194;6.132;2023-05-29T05:25:35;11.77;;;1.85;;
76566;SDS011;65428;53.194;6.132;2023-05-29T05:28:02;12.63;;;1.67;;
76566;SDS011;65428;53.194;6.132;2023-05-29T05:30:30;10.45;;;1.50;;
76566;SDS011;65428;53.194;6.132;2023-05-29T05:32:57;15.02;;;1.77;;
76566;SDS011;65428;53.194;6.132;2023-05-29T05:35:23;13.27;;;1.80;;
76566;SDS011;65428;53.194;6.132;2023-05-29T05:37:49;13.57;;;1.73;;
76566;SDS011;65428;53.194;6.132;2023-05-29T05:40:15;12.67;;;2.00;;
76566;SDS011;65428;53.194;6.132;2023-05-29T05:42:40;11.83;;;1.90;;
76566;SDS011;65428;53.194;6.132;2023-05-29T05:45:06;12.52;;;2.30;;
76566;SDS011;65428;53.194;6.132;2023-05-29T05:47:32;12.13;;;1.85;;
76566;SDS011;65428;53.194;6.132;2023-05-29T05:49:58;12.18;;;2.33;;
76566;SDS011;65428;53.194;6.132;2023-05-29T05:52:25;14.88;;;2.38;;
76566;SDS011;65428;53.194;6.132;2023-05-29T05:54:55;12.68;;;2.30;;
76566;SDS011;65428;53.194;6.132;2023-05-29T05:57:21;14.00;;;2.20;;
76566;SDS011;65428;53.194;6.132;2023-05-29T05:59:47;14.77;;;2.42;;
76566;SDS011;65428;53.194;6.132;2023-05-29T06:02:12;14.68;;;2.33;;
76566;SDS011;65428;53.194;6.132;2023-05-29T06:04:38;11.63;;;1.97;;
76566;SDS011;65428;53.194;6.132;2023-05-29T06:07:04;13.48;;;1.98;;
76566;SDS011;65428;53.194;6.132;2023-05-29T06:09:29;14.55;;;2.60;;
76566;SDS011;65428;53.194;6.132;2023-05-29T06:11:55;12.47;;;2.07;;
76566;SDS011;65428;53.194;6.132;2023-05-29T06:14:20;12.90;;;2.50;;
76566;SDS011;65428;53.194;6.132;2023-05-29T06:16:46;11.20;;;1.83;;
76566;SDS011;65428;53.194;6.132;2023-05-29T06:19:12;14.85;;;2.17;;
76566;SDS011;65428;53.194;6.132;2023-05-29T06:21:39;13.07;;;2.10;;
76566;SDS011;65428;53.194;6.132;2023-05-29T06:24:05;15.27;;;2.58;;
76566;SDS011;65428;53.194;6.132;2023-05-29T06:26:31;14.97;;;2.67;;
76566;SDS011;65428;53.194;6.132;2023-05-29T06:28:57;12.13;;;2.17;;
76566;SDS011;65428;53.194;6.132;2023-05-29T06:31:23;14.82;;;2.40;;
76566;SDS011;65428;53.194;6.132;2023-05-29T06:33:48;15.93;;;2.60;;
76566;SDS011;65428;53.194;6.132;2023-05-29T06:36:15;14.65;;;2.50;;
76566;SDS011;65428;53.194;6.132;2023-05-29T06:38:45;14.63;;;2.80;;
76566;SDS011;65428;53.194;6.132;2023-05-29T06:41:14;14.48;;;3.00;;
76566;SDS011;65428;53.194;6.132;2023-05-29T06:43:41;13.48;;;2.47;;
76566;SDS011;65428;53.194;6.132;2023-05-29T06:46:07;15.77;;;2.50;;
76566;SDS011;65428;53.194;6.132;2023-05-29T06:48:35;15.85;;;2.97;;
76566;SDS011;65428;53.194;6.132;2023-05-29T06:51:04;15.52;;;2.70;;
76566;SDS011;65428;53.194;6.132;2023-05-29T06:53:36;16.67;;;2.80;;
76566;SDS011;65428;53.194;6.132;2023-05-29T06:56:06;13.65;;;2.65;;
76566;SDS011;65428;53.194;6.132;2023-05-29T06:58:31;15.15;;;2.92;;
76566;SDS011;65428;53.194;6.132;2023-05-29T07:00:58;14.65;;;2.92;;
76566;SDS011;65428;53.194;6.132;2023-05-29T07:03:24;12.90;;;2.42;;
76566;SDS011;65428;53.194;6.132;2023-05-29T07:05:51;15.30;;;2.67;;
76566;SDS011;65428;53.194;6.132;2023-05-29T07:08:17;13.00;;;2.72;;
76566;SDS011;65428;53.194;6.132;2023-05-29T07:10:43;16.02;;;2.83;;
76566;SDS011;65428;53.194;6.132;2023-05-29T07:13:08;15.63;;;3.17;;
76566;SDS011;65428;53.194;6.132;2023-05-29T07:15:34;15.20;;;2.90;;
76566;SDS011;65428;53.194;6.132;2023-05-29T07:18:00;18.38;;;3.33;;
76566;SDS011;65428;53.194;6.132;2023-05-29T07:20:25;14.43;;;2.87;;
76566;SDS011;65428;53.194;6.132;2023-05-29T07:22:51;18.33;;;3.10;;
76566;SDS011;65428;53.194;6.132;2023-05-29T07:25:17;14.70;;;2.50;;
76566;SDS011;65428;53.194;6.132;2023-05-29T07:27:42;15.85;;;2.83;;
76566;SDS011;65428;53.194;6.132;2023-05-29T07:30:08;13.88;;;2.50;;
76566;SDS011;65428;53.194;6.132;2023-05-29T07:32:35;13.35;;;2.67;;
76566;SDS011;65428;53.194;6.132;2023-05-29T07:35:00;14.35;;;2.78;;
76566;SDS011;65428;53.194;6.132;2023-05-29T07:37:26;14.87;;;3.40;;
76566;SDS011;65428;53.194;6.132;2023-05-29T07:39:52;19.15;;;3.17;;
76566;SDS011;65428;53.194;6.132;2023-05-29T07:42:17;13.03;;;2.50;;
76566;SDS011;65428;53.194;6.132;2023-05-29T07:44:43;15.73;;;3.13;;
76566;SDS011;65428;53.194;6.132;2023-05-29T07:47:10;15.68;;;2.72;;
76566;SDS011;65428;53.194;6.132;2023-05-29T07:49:36;11.77;;;2.30;;
76566;SDS011;65428;53.194;6.132;2023-05-29T07:52:02;14.03;;;2.30;;
76566;SDS011;65428;53.194;6.132;2023-05-29T07:54:28;15.93;;;2.83;;
76566;SDS011;65428;53.194;6.132;2023-05-29T07:56:55;14.25;;;2.70;;
76566;SDS011;65428;53.194;6.132;2023-05-29T07:59:20;16.88;;;2.78;;
76566;SDS011;65428;53.194;6.132;2023-05-29T08:01:46;13.97;;;2.70;;
76566;SDS011;65428;53.194;6.132;2023-05-29T08:04:12;16.17;;;2.80;;
76566;SDS011;65428;53.194;6.132;2023-05-29T08:06:38;13.85;;;2.72;;
76566;SDS011;65428;53.194;6.132;2023-05-29T08:09:07;17.17;;;2.95;;
76566;SDS011;65428;53.194;6.132;2023-05-29T08:11:33;15.27;;;3.17;;
76566;SDS011;65428;53.194;6.132;2023-05-29T08:13:58;16.25;;;2.83;;
76566;SDS011;65428;53.194;6.132;2023-05-29T08:16:24;17.10;;;3.00;;
76566;SDS011;65428;53.194;6.132;2023-05-29T08:18:52;13.63;;;2.50;;
76566;SDS011;65428;53.194;6.132;2023-05-29T08:21:17;16.47;;;2.93;;
76566;SDS011;65428;53.194;6.132;2023-05-29T08:23:43;12.87;;;2.67;;
76566;SDS011;65428;53.194;6.132;2023-05-29T08:26:09;17.08;;;2.95;;
76566;SDS011;65428;53.194;6.132;2023-05-29T08:28:35;13.95;;;2.80;;
76566;SDS011;65428;53.194;6.132;2023-05-29T08:31:00;18.27;;;2.97;;
76566;SDS011;65428;53.194;6.132;2023-05-29T08:33:26;14.48;;;2.78;;
76566;SDS011;65428;53.194;6.132;2023-05-29T08:35:52;16.47;;;2.87;;
76566;SDS011;65428;53.194;6.132;2023-05-29T08:38:17;14.43;;;2.75;;
76566;SDS011;65428;53.194;6.132;2023-05-29T08:40:45;13.52;;;2.53;;
76566;SDS011;65428;53.194;6.132;2023-05-29T08:43:15;16.52;;;2.80;;
76566;SDS011;65428;53.194;6.132;2023-05-29T08:45:45;14.48;;;2.67;;
76566;SDS011;65428;53.194;6.132;2023-05-29T08:48:16;14.57;;;2.50;;
76566;SDS011;65428;53.194;6.132;2023-05-29T08:50:44;15.38;;;2.55;;
76566;SDS011;65428;53.194;6.132;2023-05-29T08:53:16;13.25;;;2.72;;
76566;SDS011;65428;53.194;6.132;2023-05-29T08:55:44;15.32;;;2.97;;
76566;SDS011;65428;53.194;6.132;2023-05-29T08:58:12;17.02;;;3.55;;
76566;SDS011;65428;53.194;6.132;2023-05-29T09:00:39;13.77;;;2.65;;
76566;SDS011;65428;53.194;6.132;2023-05-29T09:03:06;15.70;;;3.25;;
76566;SDS011;65428;53.194;6.132;2023-05-29T09:05:32;13.88;;;2.75;;
76566;SDS011;65428;53.194;6.132;2023-05-29T09:08:04;15.50;;;2.80;;
76566;SDS011;65428;53.194;6.132;2023-05-29T09:10:30;12.43;;;2.53;;
76566;SDS011;65428;53.194;6.132;2023-05-29T09:12:57;13.98;;;2.70;;
76566;SDS011;65428;53.194;6.132;2023-05-29T09:15:23;15.32;;;3.38;;
76566;SDS011;65428;53.194;6.132;2023-05-29T09:17:52;19.08;;;3.13;;
76566;SDS011;65428;53.194;6.132;2023-05-29T09:20:19;16.20;;;2.63;;
76566;SDS011;65428;53.194;6.132;2023-05-29T09:22:52;16.35;;;3.17;;
76566;SDS011;65428;53.194;6.132;2023-05-29T09:25:18;16.58;;;3.15;;
76566;SDS011;65428;53.194;6.132;2023-05-29T09:27:47;17.43;;;3.10;;
76566;SDS011;65428;53.194;6.132;2023-05-29T09:33:01;15.70;;;3.00;;
76566;SDS011;65428;53.194;6.132;2023-05-29T09:35:34;15.45;;;3.05;;
76566;SDS011;65428;53.194;6.132;2023-05-29T09:38:04;16.33;;;2.97;;
76566;SDS011;65428;53.194;6.132;2023-05-29T09:40:40;14.40;;;2.60;;
76566;SDS011;65428;53.194;6.132;2023-05-29T09:43:13;13.68;;;2.88;;
76566;SDS011;65428;53.194;6.132;2023-05-29T09:45:44;14.05;;;2.92;;
76566;SDS011;65428;53.194;6.132;2023-05-29T09:48:18;12.50;;;2.30;;
76566;SDS011;65428;53.194;6.132;2023-05-29T09:50:49;14.52;;;2.70;;
76566;SDS011;65428;53.194;6.132;2023-05-29T09:53:18;13.75;;;2.50;;
76566;SDS011;65428;53.194;6.132;2023-05-29T09:55:46;15.83;;;3.17;;
76566;SDS011;65428;53.194;6.132;2023-05-29T09:58:13;16.92;;;2.55;;
76566;SDS011;65428;53.194;6.132;2023-05-29T10:00:45;14.20;;;2.45;;
76566;SDS011;65428;53.194;6.132;2023-05-29T10:03:12;13.38;;;3.03;;
76566;SDS011;65428;53.194;6.132;2023-05-29T10:05:39;15.13;;;2.90;;
76566;SDS011;65428;53.194;6.132;2023-05-29T10:08:05;11.15;;;3.10;;
76566;SDS011;65428;53.194;6.132;2023-05-29T10:10:36;13.65;;;3.10;;
76566;SDS011;65428;53.194;6.132;2023-05-29T10:13:05;16.92;;;3.00;;
76566;SDS011;65428;53.194;6.132;2023-05-29T10:15:35;16.52;;;3.45;;
76566;SDS011;65428;53.194;6.132;2023-05-29T10:18:05;15.73;;;2.90;;
76566;SDS011;65428;53.194;6.132;2023-05-29T10:20:38;15.43;;;2.58;;
76566;SDS011;65428;53.194;6.132;2023-05-29T10:23:05;14.85;;;3.15;;
76566;SDS011;65428;53.194;6.132;2023-05-29T10:25:33;13.13;;;2.60;;
76566;SDS011;65428;53.194;6.132;2023-05-29T10:28:00;12.90;;;2.73;;
76566;SDS011;65428;53.194;6.132;2023-05-29T10:30:29;14.88;;;2.90;;
76566;SDS011;65428;53.194;6.132;2023-05-29T10:38:26;14.15;;;2.50;;
76566;SDS011;65428;53.194;6.132;2023-05-29T10:40:51;12.73;;;2.25;;
76566;SDS011;65428;53.194;6.132;2023-05-29T10:43:30;10.67;;;2.30;;
76566;SDS011;65428;53.194;6.132;2023-05-29T10:46:00;12.10;;;2.13;;
76566;SDS011;65428;53.194;6.132;2023-05-29T10:50:55;11.95;;;2.28;;
76566;SDS011;65428;53.194;6.132;2023-05-29T10:53:25;12.60;;;2.50;;
76566;SDS011;65428;53.194;6.132;2023-05-29T10:55:52;10.88;;;2.25;;
76566;SDS011;65428;53.194;6.132;2023-05-29T10:58:19;13.43;;;2.20;;
76566;SDS011;65428;53.194;6.132;2023-05-29T11:00:46;13.02;;;2.50;;
76566;SDS011;65428;53.194;6.132;2023-05-29T11:03:17;12.00;;;2.45;;
76566;SDS011;65428;53.194;6.132;2023-05-29T11:08:41;12.68;;;2.53;;
76566;SDS011;65428;53.194;6.132;2023-05-29T11:13:52;12.77;;;2.72;;
76566;SDS011;65428;53.194;6.132;2023-05-29T11:16:20;14.07;;;2.87;;
76566;SDS011;65428;53.194;6.132;2023-05-29T11:19:04;11.77;;;2.25;;
76566;SDS011;65428;53.194;6.132;2023-05-29T11:24:38;11.70;;;2.30;;
76566;SDS011;65428;53.194;6.132;2023-05-29T11:27:05;12.20;;;2.55;;
76566;SDS011;65428;53.194;6.132;2023-05-29T11:29:33;10.25;;;1.98;;
76566;SDS011;65428;53.194;6.132;2023-05-29T11:32:04;10.90;;;2.10;;
76566;SDS011;65428;53.194;6.132;2023-05-29T11:34:32;12.88;;;2.50;;
76566;SDS011;65428;53.194;6.132;2023-05-29T11:36:59;11.68;;;2.20;;
76566;SDS011;65428;53.194;6.132;2023-05-29T11:39:26;11.95;;;2.38;;
76566;SDS011;65428;53.194;6.132;2023-05-29T11:41:53;11.15;;;2.30;;
76566;SDS011;65428;53.194;6.132;2023-05-29T11:44:20;11.48;;;2.15;;
76566;SDS011;65428;53.194;6.132;2023-05-29T11:46:58;10.77;;;2.10;;
76566;SDS011;65428;53.194;6.132;2023-05-29T11:49:35;10.52;;;2.13;;
76566;SDS011;65428;53.194;6.132;2023-05-29T11:52:11;9.43;;;2.05;;
76566;SDS011;65428;53.194;6.132;2023-05-29T11:54:39;9.68;;;1.90;;
76566;SDS011;65428;53.194;6.132;2023-05-29T11:57:11;9.43;;;1.93;;
76566;SDS011;65428;53.194;6.132;2023-05-29T11:59:43;8.73;;;2.28;;
76566;SDS011;65428;53.194;6.132;2023-05-29T12:02:09;10.20;;;1.70;;
76566;SDS011;65428;53.194;6.132;2023-05-29T12:04:35;9.23;;;1.60;;
76566;SDS011;65428;53.194;6.132;2023-05-29T12:07:00;10.47;;;1.90;;
76566;SDS011;65428;53.194;6.132;2023-05-29T12:09:27;9.45;;;1.90;;
76566;SDS011;65428;53.194;6.132;2023-05-29T12:11:54;11.25;;;2.42;;
76566;SDS011;65428;53.194;6.132;2023-05-29T12:14:26;9.55;;;1.98;;
76566;SDS011;65428;53.194;6.132;2023-05-29T12:16:51;9.30;;;1.90;;
76566;SDS011;65428;53.194;6.132;2023-05-29T12:19:17;8.32;;;2.08;;
76566;SDS011;65428;53.194;6.132;2023-05-29T12:21:43;8.77;;;1.80;;
76566;SDS011;65428;53.194;6.132;2023-05-29T12:24:09;9.77;;;2.17;;
76566;SDS011;65428;53.194;6.132;2023-05-29T12:26:35;10.07;;;2.15;;
76566;SDS011;65428;53.194;6.132;2023-05-29T12:29:04;9.43;;;2.13;;
76566;SDS011;65428;53.194;6.132;2023-05-29T12:31:31;12.40;;;2.55;;
76566;SDS011;65428;53.194;6.132;2023-05-29T12:34:00;11.13;;;2.13;;
76566;SDS011;65428;53.194;6.132;2023-05-29T12:36:27;10.15;;;1.80;;
76566;SDS011;65428;53.194;6.132;2023-05-29T12:38:53;8.50;;;1.75;;
76566;SDS011;65428;53.194;6.132;2023-05-29T12:41:23;8.73;;;1.70;;
76566;SDS011;65428;53.194;6.132;2023-05-29T12:43:53;9.05;;;2.00;;
76566;SDS011;65428;53.194;6.132;2023-05-29T12:46:23;9.27;;;1.92;;
76566;SDS011;65428;53.194;6.132;2023-05-29T12:48:51;9.60;;;1.90;;
76566;SDS011;65428;53.194;6.132;2023-05-29T12:51:22;10.23;;;1.90;;
76566;SDS011;65428;53.194;6.132;2023-05-29T12:53:49;9.65;;;1.95;;
76566;SDS011;65428;53.194;6.132;2023-05-29T12:56:15;9.13;;;1.85;;
76566;SDS011;65428;53.194;6.132;2023-05-29T12:58:40;10.80;;;1.73;;
76566;SDS011;65428;53.194;6.132;2023-05-29T13:01:11;8.97;;;1.70;;
76566;SDS011;65428;53.194;6.132;2023-05-29T13:03:38;8.47;;;1.60;;
76566;SDS011;65428;53.194;6.132;2023-05-29T13:06:04;8.40;;;1.60;;
76566;SDS011;65428;53.194;6.132;2023-05-29T13:08:30;10.48;;;1.80;;
76566;SDS011;65428;53.194;6.132;2023-05-29T13:10:56;9.30;;;1.77;;
76566;SDS011;65428;53.194;6.132;2023-05-29T13:13:22;10.17;;;1.70;;
76566;SDS011;65428;53.194;6.132;2023-05-29T13:15:47;9.02;;;2.10;;
76566;SDS011;65428;53.194;6.132;2023-05-29T13:18:13;10.80;;;1.93;;
76566;SDS011;65428;53.194;6.132;2023-05-29T13:20:38;8.37;;;1.50;;
76566;SDS011;65428;53.194;6.132;2023-05-29T13:23:04;10.73;;;2.25;;
76566;SDS011;65428;53.194;6.132;2023-05-29T13:25:30;9.70;;;2.17;;
76566;SDS011;65428;53.194;6.132;2023-05-29T13:27:55;9.77;;;1.65;;
76566;SDS011;65428;53.194;6.132;2023-05-29T13:30:21;10.45;;;1.92;;
76566;SDS011;65428;53.194;6.132;2023-05-29T13:32:47;9.27;;;1.85;;
76566;SDS011;65428;53.194;6.132;2023-05-29T13:35:13;10.63;;;1.90;;
76566;SDS011;65428;53.194;6.132;2023-05-29T13:37:39;9.07;;;2.00;;
76566;SDS011;65428;53.194;6.132;2023-05-29T13:40:05;8.23;;;1.85;;
76566;SDS011;65428;53.194;6.132;2023-05-29T13:42:31;9.00;;;1.40;;
76566;SDS011;65428;53.194;6.132;2023-05-29T13:44:57;7.00;;;1.52;;
76566;SDS011;65428;53.194;6.132;2023-05-29T13:47:23;7.30;;;1.97;;
76566;SDS011;65428;53.194;6.132;2023-05-29T13:49:51;9.02;;;1.98;;
76566;SDS011;65428;53.194;6.132;2023-05-29T13:52:17;7.47;;;1.47;;
76566;SDS011;65428;53.194;6.132;2023-05-29T13:54:43;7.50;;;1.60;;
76566;SDS011;65428;53.194;6.132;2023-05-29T13:57:08;7.13;;;1.60;;
76566;SDS011;65428;53.194;6.132;2023-05-29T13:59:34;7.18;;;1.50;;
76566;SDS011;65428;53.194;6.132;2023-05-29T14:02:00;9.35;;;1.60;;
76566;SDS011;65428;53.194;6.132;2023-05-29T14:04:28;7.10;;;1.60;;
76566;SDS011;65428;53.194;6.132;2023-05-29T14:06:54;6.93;;;1.40;;
76566;SDS011;65428;53.194;6.132;2023-05-29T14:09:21;7.03;;;1.60;;
76566;SDS011;65428;53.194;6.132;2023-05-29T14:11:51;8.07;;;1.58;;
76566;SDS011;65428;53.194;6.132;2023-05-29T14:14:17;7.30;;;1.58;;
76566;SDS011;65428;53.194;6.132;2023-05-29T14:16:43;8.87;;;1.90;;
76566;SDS011;65428;53.194;6.132;2023-05-29T14:19:09;7.57;;;1.48;;
76566;SDS011;65428;53.194;6.132;2023-05-29T14:21:34;9.40;;;1.43;;
76566;SDS011;65428;53.194;6.132;2023-05-29T14:24:01;8.32;;;1.60;;
76566;SDS011;65428;53.194;6.132;2023-05-29T14:26:26;7.90;;;1.42;;
76566;SDS011;65428;53.194;6.132;2023-05-29T14:28:52;6.77;;;1.23;;
76566;SDS011;65428;53.194;6.132;2023-05-29T14:31:18;8.50;;;1.40;;
76566;SDS011;65428;53.194;6.132;2023-05-29T14:33:43;10.73;;;1.45;;
76566;SDS011;65428;53.194;6.132;2023-05-29T14:36:09;7.10;;;1.20;;
76566;SDS011;65428;53.194;6.132;2023-05-29T14:38:35;7.22;;;1.58;;
76566;SDS011;65428;53.194;6.132;2023-05-29T14:41:01;8.55;;;1.38;;
76566;SDS011;65428;53.194;6.132;2023-05-29T14:43:27;8.85;;;1.40;;
76566;SDS011;65428;53.194;6.132;2023-05-29T14:45:52;7.33;;;1.20;;
76566;SDS011;65428;53.194;6.132;2023-05-29T14:48:18;8.97;;;1.33;;
76566;SDS011;65428;53.194;6.132;2023-05-29T14:50:44;9.93;;;1.60;;
76566;SDS011;65428;53.194;6.132;2023-05-29T14:53:09;9.03;;;1.47;;
76566;SDS011;65428;53.194;6.132;2023-05-29T14:55:35;7.93;;;1.13;;
76566;SDS011;65428;53.194;6.132;2023-05-29T14:58:03;10.02;;;1.63;;
76566;SDS011;65428;53.194;6.132;2023-05-29T15:00:29;10.43;;;1.38;;
76566;SDS011;65428;53.194;6.132;2023-05-29T15:02:54;9.32;;;1.40;;